createdAt,value
2022-12-16T00:00:06.477Z,23.23
2022-12-16T00:02:33.273Z,24.33
2022-12-16T00:04:59.905Z,22.23
2022-12-16T00:07:26.656Z,23.73
2022-12-16T00:09:53.145Z,21.10
2022-12-16T00:12:19.710Z,20.77
2022-12-16T00:14:46.178Z,22.27
2022-12-16T00:17:12.721Z,23.20
2022-12-16T00:19:39.286Z,21.77
2022-12-16T00:22:05.821Z,21.60
2022-12-16T00:24:32.460Z,21.60
2022-12-16T00:26:59.006Z,24.00
2022-12-16T00:29:25.563Z,22.80
2022-12-16T00:31:52.177Z,21.63
2022-12-16T00:34:19.297Z,20.30
2022-12-16T00:36:45.850Z,22.13
2022-12-16T00:39:12.498Z,21.20
2022-12-16T00:41:39.150Z,22.65
2022-12-16T00:44:05.766Z,20.65
2022-12-16T00:46:32.447Z,22.02
2022-12-16T00:48:59.093Z,19.90
2022-12-16T00:51:26.004Z,19.10
2022-12-16T00:53:52.538Z,19.63
2022-12-16T00:56:19.338Z,18.98
2022-12-16T00:58:46.199Z,18.45
2022-12-16T01:01:13.158Z,21.85
2022-12-16T01:03:40.488Z,15.88
2022-12-16T01:06:12.987Z,20.80
2022-12-16T01:08:39.911Z,18.15
2022-12-16T01:11:06.744Z,19.15
2022-12-16T01:13:34.072Z,17.48
2022-12-16T01:16:01.729Z,17.95
2022-12-16T01:18:28.553Z,18.90
2022-12-16T01:21:02.725Z,19.95
2022-12-16T01:23:29.441Z,17.17
2022-12-16T01:25:59.017Z,18.35
2022-12-16T01:28:26.754Z,17.50
2022-12-16T01:31:01.337Z,18.92
2022-12-16T01:33:30.581Z,19.15
2022-12-16T01:36:03.036Z,17.85
2022-12-16T01:38:29.977Z,19.10
2022-12-16T01:40:57.312Z,18.85
2022-12-16T01:43:27.379Z,18.85
2022-12-16T01:46:00.297Z,17.33
2022-12-16T01:48:40.956Z,16.80
2022-12-16T01:51:35.578Z,17.83
2022-12-16T01:54:34.545Z,17.98
2022-12-16T01:57:06.625Z,21.13
2022-12-16T01:59:36.627Z,18.23
2022-12-16T02:02:04.808Z,18.10
2022-12-16T02:04:31.464Z,16.52
2022-12-16T02:06:58.685Z,20.45
2022-12-16T02:09:25.467Z,19.35
2022-12-16T02:12:19.840Z,18.52
2022-12-16T02:15:10.500Z,19.58
2022-12-16T02:17:49.034Z,18.83
2022-12-16T02:20:26.162Z,19.55
2022-12-16T02:23:16.825Z,20.13
2022-12-16T02:26:08.149Z,19.63
2022-12-16T02:28:47.334Z,17.42
2022-12-16T02:31:27.434Z,21.63
2022-12-16T02:33:58.890Z,20.25
2022-12-16T02:36:47.164Z,20.25
2022-12-16T02:39:22.991Z,20.70
2022-12-16T02:41:49.475Z,19.60
2022-12-16T02:44:17.326Z,15.98
2022-12-16T02:46:53.810Z,17.15
2022-12-16T02:49:22.069Z,19.27
2022-12-16T02:51:49.569Z,21.10
2022-12-16T02:54:17.667Z,18.35
2022-12-16T02:56:58.694Z,20.23
2022-12-16T02:59:53.246Z,17.58
2022-12-16T03:02:30.022Z,18.60
2022-12-16T03:05:06.334Z,16.50
2022-12-16T03:07:36.554Z,19.90
2022-12-16T03:10:08.629Z,15.77
2022-12-16T03:12:40.252Z,18.63
2022-12-16T03:15:08.037Z,19.27
2022-12-16T03:17:37.006Z,17.52
2022-12-16T03:20:20.874Z,17.85
2022-12-16T03:22:50.760Z,16.35
2022-12-16T03:25:20.174Z,16.90
2022-12-16T03:28:05.005Z,16.83
2022-12-16T03:30:44.707Z,16.08
2022-12-16T03:33:30.006Z,17.05
2022-12-16T03:36:06.978Z,16.75
2022-12-16T03:38:36.365Z,18.10
2022-12-16T03:41:04.110Z,16.80
2022-12-16T03:43:31.580Z,18.13
2022-12-16T03:46:04.180Z,16.67
2022-12-16T03:48:31.017Z,16.33
2022-12-16T03:50:57.595Z,15.52
2022-12-16T03:53:26.326Z,15.20
2022-12-16T03:55:54.596Z,15.05
2022-12-16T03:58:21.670Z,17.67
2022-12-16T04:00:48.227Z,18.27
2022-12-16T04:03:15.169Z,16.25
2022-12-16T04:05:41.933Z,18.45
2022-12-16T04:08:08.538Z,15.52
2022-12-16T04:10:53.456Z,15.18
2022-12-16T04:13:38.770Z,17.92
2022-12-16T04:16:24.252Z,16.80
2022-12-16T04:21:55.599Z,15.13
2022-12-16T04:24:29.325Z,12.82
2022-12-16T04:27:28.350Z,15.93
2022-12-16T04:30:13.689Z,16.60
2022-12-16T04:32:59.180Z,14.88
2022-12-16T04:38:29.431Z,14.73
2022-12-16T04:41:14.547Z,19.13
2022-12-16T04:44:00.024Z,13.90
2022-12-16T04:46:45.648Z,14.73
2022-12-16T04:49:30.912Z,15.00
2022-12-16T04:52:16.390Z,14.15
2022-12-16T04:57:46.942Z,14.27
2022-12-16T05:00:32.151Z,13.35
2022-12-16T05:03:17.518Z,13.32
2022-12-16T05:08:48.147Z,14.70
2022-12-16T05:11:33.560Z,15.18
2022-12-16T05:14:18.806Z,15.18
2022-12-16T05:17:04.177Z,16.60
2022-12-16T05:19:49.240Z,16.52
2022-12-16T05:22:34.495Z,19.48
2022-12-16T05:25:19.954Z,16.40
2022-12-16T05:30:54.204Z,15.80
2022-12-16T05:33:41.493Z,13.18
2022-12-16T05:36:26.678Z,14.77
2022-12-16T05:39:12.469Z,14.10
2022-12-16T05:41:58.289Z,14.88
2022-12-16T05:44:43.489Z,15.65
2022-12-16T05:47:28.835Z,15.57
2022-12-16T05:53:13.546Z,12.98
2022-12-16T05:55:58.970Z,14.82
2022-12-16T06:01:30.319Z,12.00
2022-12-16T06:07:03.492Z,12.70
2022-12-16T06:09:53.105Z,15.60
2022-12-16T06:12:41.396Z,15.50
2022-12-16T06:15:27.244Z,17.42
2022-12-16T06:18:12.637Z,17.20
2022-12-16T06:23:43.197Z,15.77
2022-12-16T06:26:28.350Z,15.82
2022-12-16T06:29:13.709Z,17.05
2022-12-16T06:34:44.500Z,22.42
2022-12-16T06:37:29.623Z,26.17
2022-12-16T06:40:14.720Z,22.98
2022-12-16T06:43:00.423Z,22.95
2022-12-16T06:45:45.669Z,23.00
2022-12-16T06:48:31.304Z,21.52
2022-12-16T06:51:16.569Z,23.50
2022-12-16T06:54:01.655Z,18.55
2022-12-16T06:56:46.828Z,20.50
2022-12-16T06:59:31.936Z,16.05
2022-12-16T07:02:17.239Z,17.23
2022-12-16T07:05:02.580Z,17.25
2022-12-16T07:07:47.716Z,21.65
2022-12-16T07:10:33.000Z,19.98
2022-12-16T07:13:19.038Z,22.02
2022-12-16T07:16:04.828Z,18.52
2022-12-16T07:18:50.147Z,17.30
2022-12-16T07:21:35.293Z,17.65
2022-12-16T07:24:20.545Z,21.98
2022-12-16T07:27:05.759Z,22.23
2022-12-16T07:29:51.058Z,19.05
2022-12-16T07:32:36.481Z,16.60
2022-12-16T07:35:22.019Z,18.02
2022-12-16T07:38:07.383Z,17.33
2022-12-16T07:40:52.593Z,18.02
2022-12-16T07:43:38.021Z,17.85
2022-12-16T07:46:23.244Z,20.17
2022-12-16T07:49:08.493Z,15.18
2022-12-16T07:51:53.618Z,17.63
2022-12-16T07:54:41.067Z,17.52
2022-12-16T07:57:26.482Z,18.95
2022-12-16T08:00:11.724Z,17.80
2022-12-16T08:02:59.709Z,18.33
2022-12-16T08:05:44.827Z,18.75
2022-12-16T08:08:30.066Z,18.15
2022-12-16T08:11:15.405Z,19.65
2022-12-16T08:14:00.645Z,20.08
2022-12-16T08:16:45.985Z,17.73
2022-12-16T08:19:31.094Z,17.02
2022-12-16T08:22:16.337Z,18.58
2022-12-16T08:25:01.894Z,16.55
2022-12-16T08:30:32.508Z,17.25
2022-12-16T08:36:23.238Z,18.25
2022-12-16T08:39:08.505Z,19.08
2022-12-16T08:44:39.205Z,15.35
2022-12-16T08:47:24.790Z,20.50
2022-12-16T08:52:55.377Z,16.25
2022-12-16T08:55:40.618Z,15.95
2022-12-16T08:58:26.008Z,18.13
2022-12-16T09:03:56.871Z,16.58
2022-12-16T09:06:42.168Z,17.70
2022-12-16T09:09:28.414Z,19.75
2022-12-16T09:12:13.786Z,19.38
2022-12-16T09:14:59.140Z,19.00
2022-12-16T09:17:44.409Z,15.95
2022-12-16T09:20:29.608Z,20.55
2022-12-16T09:23:14.996Z,18.40
2022-12-16T09:26:00.484Z,16.85
2022-12-16T09:28:45.748Z,18.90
2022-12-16T09:31:30.939Z,17.77
2022-12-16T09:34:30.025Z,17.73
2022-12-16T09:37:15.683Z,19.80
2022-12-16T09:43:21.222Z,17.23
2022-12-16T09:46:24.639Z,19.48
2022-12-16T09:49:35.278Z,19.13
2022-12-16T09:52:22.560Z,17.88
2022-12-16T09:55:08.075Z,18.27
2022-12-16T09:57:55.513Z,17.92
2022-12-16T10:00:43.810Z,17.42
2022-12-16T10:03:41.598Z,18.00
2022-12-16T10:07:13.077Z,17.73
2022-12-16T10:10:36.413Z,18.02
2022-12-16T10:13:46.625Z,17.85
2022-12-16T10:16:54.883Z,16.42
2022-12-16T10:19:54.022Z,17.63
2022-12-16T10:23:00.475Z,16.80
2022-12-16T10:25:54.870Z,16.15
2022-12-16T10:28:59.150Z,17.35
2022-12-16T10:31:44.336Z,16.48
2022-12-16T10:34:39.814Z,17.10
2022-12-16T10:37:25.018Z,19.63
2022-12-16T10:40:16.733Z,18.35
2022-12-16T10:43:25.894Z,19.27
2022-12-16T10:46:15.196Z,17.75
2022-12-16T10:49:01.102Z,17.02
2022-12-16T10:51:47.913Z,18.23
2022-12-16T10:55:02.562Z,18.00
2022-12-16T10:57:52.925Z,16.60
2022-12-16T11:00:56.096Z,18.13
2022-12-16T11:03:44.758Z,17.10
2022-12-16T11:06:35.165Z,17.73
2022-12-16T11:09:46.066Z,17.17
2022-12-16T11:12:47.855Z,16.55
2022-12-16T11:15:53.652Z,17.15
2022-12-16T11:18:41.443Z,16.00
2022-12-16T11:21:37.053Z,18.10
2022-12-16T11:24:34.569Z,15.23
2022-12-16T11:27:41.490Z,16.27
2022-12-16T11:30:37.464Z,17.85
2022-12-16T11:33:52.588Z,17.80
2022-12-16T11:36:43.080Z,17.15
2022-12-16T11:39:37.994Z,16.40
2022-12-16T11:42:24.939Z,16.80
2022-12-16T11:45:17.155Z,17.02
2022-12-16T11:48:12.521Z,16.27
2022-12-16T11:51:06.814Z,16.73
2022-12-16T11:54:03.121Z,15.85
2022-12-16T11:56:56.667Z,15.98
2022-12-16T11:59:55.133Z,15.35
2022-12-16T12:03:14.950Z,15.75
2022-12-16T12:06:15.249Z,14.35
2022-12-16T12:09:33.728Z,14.57
2022-12-16T12:12:34.497Z,15.82
2022-12-16T12:15:35.092Z,14.90
2022-12-16T12:18:24.920Z,15.65
2022-12-16T12:21:49.133Z,13.73
2022-12-16T12:25:18.535Z,13.30
2022-12-16T12:28:03.733Z,13.68
2022-12-16T12:30:51.688Z,13.93
2022-12-16T12:33:49.216Z,15.35
2022-12-16T12:36:48.033Z,15.02
2022-12-16T12:39:54.394Z,15.18
2022-12-16T12:42:57.887Z,14.00
2022-12-16T12:46:11.743Z,14.02
2022-12-16T12:49:34.525Z,13.27
2022-12-16T12:52:38.076Z,13.85
2022-12-16T12:55:34.990Z,14.73
2022-12-16T12:58:25.510Z,15.23
2022-12-16T13:01:16.435Z,13.35
2022-12-16T13:04:07.226Z,15.10
2022-12-16T13:06:55.398Z,13.38
2022-12-16T13:09:57.157Z,14.40
2022-12-16T13:12:48.315Z,14.82
2022-12-16T13:15:51.234Z,15.20
2022-12-16T13:18:42.617Z,16.23
2022-12-16T13:21:56.271Z,14.70
2022-12-16T13:24:41.982Z,13.95
2022-12-16T13:27:32.185Z,16.05
2022-12-16T13:30:38.729Z,14.35
2022-12-16T13:36:16.685Z,14.07
2022-12-16T13:39:08.011Z,15.48
2022-12-16T13:41:53.279Z,15.25
2022-12-16T13:45:00.511Z,13.90
2022-12-16T13:48:01.346Z,16.20
2022-12-16T13:51:01.846Z,14.02
2022-12-16T13:53:50.633Z,15.68
2022-12-16T13:56:44.615Z,16.00
2022-12-16T13:59:37.205Z,15.75
2022-12-16T14:02:39.174Z,16.85
2022-12-16T14:05:36.615Z,14.07
2022-12-16T14:08:23.276Z,15.80
2022-12-16T14:11:17.482Z,14.85
2022-12-16T14:14:11.439Z,13.60
2022-12-16T14:17:09.559Z,15.68
2022-12-16T14:20:19.725Z,13.35
2022-12-16T14:23:55.488Z,14.45
2022-12-16T14:26:34.506Z,16.77
2022-12-16T14:32:07.626Z,14.63
2022-12-16T14:34:55.328Z,14.20
2022-12-16T14:37:47.430Z,15.55
2022-12-16T14:40:40.269Z,16.77
2022-12-16T14:43:34.416Z,15.52
2022-12-16T14:46:19.983Z,15.93
2022-12-16T14:49:06.812Z,18.13
2022-12-16T14:51:52.978Z,20.52
2022-12-16T14:54:44.219Z,22.70
2022-12-16T14:57:33.052Z,23.23
2022-12-16T15:00:27.702Z,22.17
2022-12-16T15:03:18.724Z,21.05
2022-12-16T15:06:04.727Z,23.83
2022-12-16T15:11:41.175Z,21.45
2022-12-16T15:14:31.943Z,23.08
2022-12-16T15:17:17.766Z,23.98
2022-12-16T15:20:09.113Z,27.63
2022-12-16T15:23:11.123Z,25.50
2022-12-16T15:26:02.117Z,25.48
2022-12-16T15:28:54.812Z,24.60
2022-12-16T15:31:44.230Z,25.30
2022-12-16T15:34:38.593Z,26.02
2022-12-16T15:37:40.548Z,25.10
2022-12-16T15:40:48.235Z,24.17
2022-12-16T15:43:49.118Z,22.80
2022-12-16T15:46:50.652Z,25.35
2022-12-16T15:49:51.959Z,23.58
2022-12-16T15:53:03.472Z,22.85
2022-12-16T15:55:59.479Z,24.17
2022-12-16T15:58:54.958Z,23.42
2022-12-16T16:01:45.735Z,23.33
2022-12-16T16:04:49.235Z,21.70
2022-12-16T16:07:40.067Z,20.60
2022-12-16T16:10:37.745Z,21.85
2022-12-16T16:13:23.637Z,21.77
2022-12-16T16:16:10.043Z,19.15
2022-12-16T16:18:56.040Z,20.13
2022-12-16T16:21:41.785Z,21.13
2022-12-16T16:27:13.239Z,19.70
2022-12-16T16:29:58.456Z,20.02
2022-12-16T16:32:43.750Z,20.67
2022-12-16T16:35:28.973Z,20.17
2022-12-16T16:38:18.356Z,20.80
2022-12-16T16:41:04.719Z,20.15
2022-12-16T16:43:49.814Z,21.10
2022-12-16T16:46:49.766Z,20.67
2022-12-16T16:49:58.218Z,22.23
2022-12-16T16:52:44.440Z,21.48
2022-12-16T16:55:42.107Z,19.10
2022-12-16T16:58:53.842Z,20.20
2022-12-16T17:01:39.435Z,18.00
2022-12-16T17:07:10.182Z,19.27
2022-12-16T17:09:56.136Z,19.42
2022-12-16T17:12:44.216Z,19.70
2022-12-16T17:15:36.511Z,20.80
2022-12-16T17:18:22.750Z,20.05
2022-12-16T17:21:07.883Z,19.98
2022-12-16T17:23:53.178Z,20.98
2022-12-16T17:26:38.746Z,19.73
2022-12-16T17:29:24.609Z,21.08
2022-12-16T17:32:09.974Z,20.02
2022-12-16T17:34:54.889Z,20.42
2022-12-16T17:37:40.022Z,17.85
2022-12-16T17:40:25.885Z,19.90
2022-12-16T17:43:11.289Z,22.08
2022-12-16T17:45:56.904Z,21.92
2022-12-16T17:48:45.586Z,19.75
2022-12-16T17:51:30.958Z,19.20
2022-12-16T17:54:23.921Z,19.02
2022-12-16T17:57:11.237Z,21.13
2022-12-16T17:59:56.307Z,17.92
2022-12-16T18:02:41.614Z,16.42
2022-12-16T18:05:32.670Z,18.88
2022-12-16T18:08:22.007Z,16.40
2022-12-16T18:11:11.322Z,20.30
2022-12-16T18:13:56.613Z,18.38
2022-12-16T18:16:49.534Z,19.42
2022-12-16T18:19:35.782Z,17.55
2022-12-16T18:22:21.602Z,17.00
2022-12-16T18:25:06.895Z,18.42
2022-12-16T18:27:54.601Z,16.40
2022-12-16T18:30:39.741Z,18.60
2022-12-16T18:33:25.203Z,17.15
2022-12-16T18:38:55.833Z,15.40
2022-12-16T18:41:41.808Z,17.98
2022-12-16T18:44:30.096Z,22.33
2022-12-16T18:47:15.248Z,20.63
2022-12-16T18:50:19.130Z,19.02
2022-12-16T18:53:07.558Z,16.52
2022-12-16T18:55:52.903Z,17.25
2022-12-16T18:58:53.583Z,17.98
2022-12-16T19:01:38.978Z,15.55
2022-12-16T19:04:24.219Z,18.45
2022-12-16T19:07:09.598Z,16.75
2022-12-16T19:09:55.008Z,17.13
2022-12-16T19:12:40.233Z,18.83
2022-12-16T19:15:25.528Z,20.90
2022-12-16T19:18:11.301Z,19.95
2022-12-16T19:20:56.879Z,20.50
2022-12-16T19:26:27.657Z,17.52
2022-12-16T19:29:12.921Z,19.73
2022-12-16T19:31:58.337Z,21.25
2022-12-16T19:34:43.673Z,20.35
2022-12-16T19:37:28.906Z,20.45
2022-12-16T19:40:14.738Z,19.08
2022-12-16T19:42:59.790Z,20.38
2022-12-16T19:45:45.098Z,21.77
2022-12-16T19:48:30.272Z,20.67
2022-12-16T19:51:17.593Z,21.42
2022-12-16T19:54:03.896Z,21.02
2022-12-16T19:56:50.629Z,21.40
2022-12-16T19:59:38.410Z,22.55
2022-12-16T20:02:25.426Z,21.20
2022-12-16T20:05:10.507Z,22.20
2022-12-16T20:07:56.341Z,23.05
2022-12-16T20:10:41.894Z,21.33
2022-12-16T20:13:30.218Z,19.70
2022-12-16T20:16:20.452Z,21.52
2022-12-16T20:19:05.825Z,19.85
2022-12-16T20:21:54.743Z,19.17
2022-12-16T20:24:42.085Z,20.42
2022-12-16T20:27:27.880Z,23.45
2022-12-16T20:30:13.246Z,22.25
2022-12-16T20:32:59.050Z,19.95
2022-12-16T20:35:44.205Z,20.05
2022-12-16T20:38:29.394Z,21.95
2022-12-16T20:41:34.268Z,22.13
2022-12-16T20:44:19.530Z,24.05
2022-12-16T20:47:04.728Z,20.05
2022-12-16T20:49:49.963Z,19.90
2022-12-16T20:52:35.239Z,21.33
2022-12-16T20:55:20.503Z,19.88
2022-12-16T20:58:05.886Z,18.40
2022-12-16T21:00:51.063Z,18.17
2022-12-16T21:03:36.972Z,17.85
2022-12-16T21:06:23.209Z,19.05
2022-12-16T21:09:08.425Z,18.48
2022-12-16T21:11:56.240Z,19.02
2022-12-16T21:14:41.669Z,21.25
2022-12-16T21:17:26.877Z,23.33
2022-12-16T21:20:12.160Z,19.70
2022-12-16T21:22:57.405Z,20.35
2022-12-16T21:25:42.688Z,25.58
2022-12-16T21:28:30.466Z,22.45
2022-12-16T21:31:19.284Z,22.80
2022-12-16T21:34:04.490Z,21.75
2022-12-16T21:36:49.725Z,22.95
2022-12-16T21:39:35.248Z,21.00
2022-12-16T21:42:20.437Z,21.15
2022-12-16T21:45:05.726Z,21.58
2022-12-16T21:47:50.802Z,19.70
2022-12-16T21:50:36.870Z,22.73
2022-12-16T21:53:22.181Z,21.65
2022-12-16T21:56:14.839Z,20.23
2022-12-16T21:59:03.213Z,22.15
2022-12-16T22:01:48.307Z,20.02
2022-12-16T22:04:33.710Z,23.45
2022-12-16T22:07:19.131Z,19.90
2022-12-16T22:10:04.964Z,21.20
2022-12-16T22:12:52.470Z,23.45
2022-12-16T22:15:38.184Z,20.70
2022-12-16T22:21:19.998Z,22.13
2022-12-16T22:24:05.229Z,21.98
2022-12-16T22:26:50.353Z,23.83
2022-12-16T22:29:35.752Z,19.45
2022-12-16T22:32:21.329Z,23.50
2022-12-16T22:37:51.815Z,19.60
2022-12-16T22:40:37.004Z,20.83
2022-12-16T22:43:23.052Z,23.75
2022-12-16T22:46:17.445Z,22.20
2022-12-16T22:49:05.178Z,23.23
2022-12-16T22:51:50.917Z,25.73
2022-12-16T22:54:35.985Z,21.13
2022-12-16T22:57:21.298Z,22.35
2022-12-16T23:00:06.519Z,25.15
2022-12-16T23:02:51.749Z,25.02
2022-12-16T23:05:36.862Z,23.13
2022-12-16T23:08:22.155Z,24.75
2022-12-16T23:11:14.503Z,25.25
2022-12-16T23:13:59.795Z,23.80
2022-12-16T23:16:45.026Z,19.67
2022-12-16T23:19:30.244Z,22.67
2022-12-16T23:22:15.273Z,20.40
2022-12-16T23:25:00.564Z,22.17
2022-12-16T23:27:45.542Z,20.65
2022-12-16T23:30:31.381Z,22.88
2022-12-16T23:33:20.889Z,21.38
2022-12-16T23:36:06.120Z,22.67
2022-12-16T23:38:51.571Z,22.60
2022-12-16T23:41:39.126Z,23.05
2022-12-16T23:44:24.225Z,23.48
2022-12-16T23:47:09.824Z,20.25
2022-12-16T23:52:41.891Z,19.35
2022-12-16T23:55:26.975Z,18.83
2022-12-16T23:58:20.336Z,17.55
